sensor_id;sensor_type;location;lat;lon;timestamp;P1;durP1;ratioP1;P2;durP2;ratioP2
37047;SDS011;23227;48.780;9.210;2022-10-17T00:02:45;3.92;;;2.00;;
37047;SDS011;23227;48.780;9.210;2022-10-17T00:05:49;7.75;;;2.13;;
37047;SDS011;23227;48.780;9.210;2022-10-17T00:08:52;14.83;;;3.30;;
37047;SDS011;23227;48.780;9.210;2022-10-17T00:11:55;7.47;;;1.88;;
37047;SDS011;23227;48.780;9.210;2022-10-17T00:14:58;4.68;;;1.73;;
37047;SDS011;23227;48.780;9.210;2022-10-17T00:18:00;5.80;;;1.98;;
37047;SDS011;23227;48.780;9.210;2022-10-17T00:21:05;3.90;;;1.90;;
37047;SDS011;23227;48.780;9.210;2022-10-17T00:24:07;12.53;;;2.33;;
37047;SDS011;23227;48.780;9.210;2022-10-17T00:27:10;3.35;;;1.80;;
37047;SDS011;23227;48.780;9.210;2022-10-17T00:30:13;3.25;;;1.75;;
37047;SDS011;23227;48.780;9.210;2022-10-17T00:33:16;6.20;;;2.00;;
37047;SDS011;23227;48.780;9.210;2022-10-17T00:36:21;2.78;;;1.90;;
37047;SDS011;23227;48.780;9.210;2022-10-17T00:39:25;12.63;;;2.43;;
37047;SDS011;23227;48.780;9.210;2022-10-17T00:42:28;5.15;;;2.00;;
37047;SDS011;23227;48.780;9.210;2022-10-17T00:45:31;7.45;;;2.15;;
37047;SDS011;23227;48.780;9.210;2022-10-17T00:48:34;5.90;;;2.03;;
37047;SDS011;23227;48.780;9.210;2022-10-17T00:51:40;4.40;;;1.70;;
37047;SDS011;23227;48.780;9.210;2022-10-17T00:54:45;4.57;;;1.67;;
37047;SDS011;23227;48.780;9.210;2022-10-17T00:57:51;4.27;;;2.20;;
37047;SDS011;23227;48.780;9.210;2022-10-17T01:00:54;7.38;;;3.58;;
37047;SDS011;23227;48.780;9.210;2022-10-17T01:03:56;11.80;;;2.08;;
37047;SDS011;23227;48.780;9.210;2022-10-17T01:07:01;4.85;;;1.90;;
37047;SDS011;23227;48.780;9.210;2022-10-17T01:10:04;7.97;;;1.77;;
37047;SDS011;23227;48.780;9.210;2022-10-17T01:13:09;8.80;;;1.90;;
37047;SDS011;23227;48.780;9.210;2022-10-17T01:16:16;5.47;;;1.57;;
37047;SDS011;23227;48.780;9.210;2022-10-17T01:19:33;7.43;;;1.77;;
37047;SDS011;23227;48.780;9.210;2022-10-17T01:22:44;6.23;;;2.07;;
37047;SDS011;23227;48.780;9.210;2022-10-17T01:25:51;10.70;;;2.60;;
37047;SDS011;23227;48.780;9.210;2022-10-17T01:29:11;5.40;;;1.90;;
37047;SDS011;23227;48.780;9.210;2022-10-17T01:32:24;7.13;;;2.27;;
37047;SDS011;23227;48.780;9.210;2022-10-17T01:35:31;10.70;;;1.90;;
37047;SDS011;23227;48.780;9.210;2022-10-17T01:38:41;5.47;;;1.60;;
37047;SDS011;23227;48.780;9.210;2022-10-17T01:41:48;6.67;;;1.77;;
37047;SDS011;23227;48.780;9.210;2022-10-17T01:44:54;9.37;;;2.27;;
37047;SDS011;23227;48.780;9.210;2022-10-17T01:48:02;6.67;;;2.60;;
37047;SDS011;23227;48.780;9.210;2022-10-17T01:51:10;5.53;;;1.70;;
37047;SDS011;23227;48.780;9.210;2022-10-17T01:54:16;6.33;;;1.70;;
37047;SDS011;23227;48.780;9.210;2022-10-17T01:57:23;5.80;;;2.23;;
37047;SDS011;23227;48.780;9.210;2022-10-17T02:00:30;8.67;;;1.90;;
37047;SDS011;23227;48.780;9.210;2022-10-17T02:03:35;9.50;;;2.23;;
37047;SDS011;23227;48.780;9.210;2022-10-17T02:06:38;7.43;;;2.40;;
37047;SDS011;23227;48.780;9.210;2022-10-17T02:09:40;6.60;;;2.38;;
37047;SDS011;23227;48.780;9.210;2022-10-17T02:12:45;5.15;;;1.90;;
37047;SDS011;23227;48.780;9.210;2022-10-17T02:15:58;6.37;;;1.63;;
37047;SDS011;23227;48.780;9.210;2022-10-17T02:19:24;5.50;;;1.90;;
37047;SDS011;23227;48.780;9.210;2022-10-17T02:22:35;2.67;;;1.90;;
37047;SDS011;23227;48.780;9.210;2022-10-17T02:25:41;5.67;;;2.10;;
37047;SDS011;23227;48.780;9.210;2022-10-17T02:28:47;6.27;;;2.33;;
37047;SDS011;23227;48.780;9.210;2022-10-17T02:31:54;5.40;;;2.10;;
37047;SDS011;23227;48.780;9.210;2022-10-17T02:35:01;5.23;;;1.90;;
37047;SDS011;23227;48.780;9.210;2022-10-17T02:38:05;3.40;;;1.70;;
37047;SDS011;23227;48.780;9.210;2022-10-17T02:41:10;8.10;;;1.80;;
37047;SDS011;23227;48.780;9.210;2022-10-17T02:44:16;7.20;;;1.60;;
37047;SDS011;23227;48.780;9.210;2022-10-17T02:47:20;2.92;;;2.00;;
37047;SDS011;23227;48.780;9.210;2022-10-17T02:50:27;5.37;;;2.50;;
37047;SDS011;23227;48.780;9.210;2022-10-17T02:53:37;5.17;;;2.17;;
37047;SDS011;23227;48.780;9.210;2022-10-17T02:56:42;4.27;;;1.83;;
37047;SDS011;23227;48.780;9.210;2022-10-17T02:59:49;2.13;;;1.67;;
37047;SDS011;23227;48.780;9.210;2022-10-17T03:02:53;4.65;;;1.85;;
37047;SDS011;23227;48.780;9.210;2022-10-17T03:09:00;4.22;;;1.77;;
37047;SDS011;23227;48.780;9.210;2022-10-17T03:12:03;8.13;;;1.58;;
37047;SDS011;23227;48.780;9.210;2022-10-17T03:15:06;3.83;;;2.10;;
37047;SDS011;23227;48.780;9.210;2022-10-17T03:18:10;4.80;;;1.90;;
37047;SDS011;23227;48.780;9.210;2022-10-17T03:21:14;3.25;;;1.80;;
37047;SDS011;23227;48.780;9.210;2022-10-17T03:24:16;2.73;;;1.70;;
37047;SDS011;23227;48.780;9.210;2022-10-17T03:27:19;3.80;;;1.75;;
37047;SDS011;23227;48.780;9.210;2022-10-17T03:30:22;3.03;;;1.90;;
37047;SDS011;23227;48.780;9.210;2022-10-17T03:33:25;2.25;;;1.65;;
37047;SDS011;23227;48.780;9.210;2022-10-17T03:36:29;5.30;;;1.90;;
37047;SDS011;23227;48.780;9.210;2022-10-17T03:39:31;4.97;;;1.70;;
37047;SDS011;23227;48.780;9.210;2022-10-17T03:42:34;9.67;;;2.03;;
37047;SDS011;23227;48.780;9.210;2022-10-17T03:45:37;6.30;;;1.77;;
37047;SDS011;23227;48.780;9.210;2022-10-17T03:48:39;6.60;;;2.10;;
37047;SDS011;23227;48.780;9.210;2022-10-17T03:51:44;7.47;;;1.90;;
37047;SDS011;23227;48.780;9.210;2022-10-17T03:54:46;8.47;;;2.13;;
37047;SDS011;23227;48.780;9.210;2022-10-17T03:57:50;3.70;;;2.00;;
37047;SDS011;23227;48.780;9.210;2022-10-17T04:00:53;3.55;;;2.30;;
37047;SDS011;23227;48.780;9.210;2022-10-17T04:03:56;4.22;;;2.00;;
37047;SDS011;23227;48.780;9.210;2022-10-17T04:07:00;4.50;;;1.73;;
37047;SDS011;23227;48.780;9.210;2022-10-17T04:10:03;6.10;;;2.17;;
37047;SDS011;23227;48.780;9.210;2022-10-17T04:13:07;5.37;;;2.00;;
37047;SDS011;23227;48.780;9.210;2022-10-17T04:16:11;9.20;;;2.35;;
37047;SDS011;23227;48.780;9.210;2022-10-17T04:19:15;7.37;;;1.90;;
37047;SDS011;23227;48.780;9.210;2022-10-17T04:22:19;9.75;;;2.20;;
37047;SDS011;23227;48.780;9.210;2022-10-17T04:25:22;7.17;;;2.30;;
37047;SDS011;23227;48.780;9.210;2022-10-17T04:28:25;5.50;;;2.10;;
37047;SDS011;23227;48.780;9.210;2022-10-17T04:31:28;15.13;;;3.40;;
37047;SDS011;23227;48.780;9.210;2022-10-17T04:34:31;9.98;;;2.47;;
37047;SDS011;23227;48.780;9.210;2022-10-17T04:37:35;8.50;;;2.28;;
37047;SDS011;23227;48.780;9.210;2022-10-17T04:40:38;5.97;;;2.93;;
37047;SDS011;23227;48.780;9.210;2022-10-17T04:43:41;6.07;;;2.90;;
37047;SDS011;23227;48.780;9.210;2022-10-17T04:46:48;5.20;;;2.60;;
37047;SDS011;23227;48.780;9.210;2022-10-17T04:49:51;9.20;;;2.72;;
37047;SDS011;23227;48.780;9.210;2022-10-17T04:52:55;7.68;;;3.38;;
37047;SDS011;23227;48.780;9.210;2022-10-17T04:55:58;4.13;;;3.03;;
37047;SDS011;23227;48.780;9.210;2022-10-17T04:59:01;6.90;;;2.15;;
37047;SDS011;23227;48.780;9.210;2022-10-17T05:02:05;3.90;;;2.20;;
37047;SDS011;23227;48.780;9.210;2022-10-17T05:05:08;4.10;;;2.22;;
37047;SDS011;23227;48.780;9.210;2022-10-17T05:08:12;5.20;;;2.65;;
37047;SDS011;23227;48.780;9.210;2022-10-17T05:11:16;5.57;;;2.27;;
37047;SDS011;23227;48.780;9.210;2022-10-17T05:14:19;8.83;;;3.37;;
37047;SDS011;23227;48.780;9.210;2022-10-17T05:17:22;8.23;;;2.22;;
37047;SDS011;23227;48.780;9.210;2022-10-17T05:20:25;5.47;;;3.10;;
37047;SDS011;23227;48.780;9.210;2022-10-17T05:23:30;3.20;;;2.30;;
37047;SDS011;23227;48.780;9.210;2022-10-17T05:26:33;7.53;;;3.13;;
37047;SDS011;23227;48.780;9.210;2022-10-17T05:29:35;11.50;;;1.90;;
37047;SDS011;23227;48.780;9.210;2022-10-17T05:35:41;14.83;;;2.40;;
37047;SDS011;23227;48.780;9.210;2022-10-17T05:38:48;8.00;;;2.63;;
37047;SDS011;23227;48.780;9.210;2022-10-17T05:41:51;4.70;;;2.40;;
37047;SDS011;23227;48.780;9.210;2022-10-17T05:44:54;8.10;;;3.75;;
37047;SDS011;23227;48.780;9.210;2022-10-17T05:47:57;9.73;;;3.37;;
37047;SDS011;23227;48.780;9.210;2022-10-17T05:51:00;11.02;;;2.78;;
37047;SDS011;23227;48.780;9.210;2022-10-17T05:54:05;4.47;;;2.30;;
37047;SDS011;23227;48.780;9.210;2022-10-17T05:57:08;8.47;;;2.50;;
37047;SDS011;23227;48.780;9.210;2022-10-17T06:00:11;4.07;;;2.17;;
37047;SDS011;23227;48.780;9.210;2022-10-17T06:03:15;12.73;;;2.83;;
37047;SDS011;23227;48.780;9.210;2022-10-17T06:06:18;7.05;;;2.70;;
37047;SDS011;23227;48.780;9.210;2022-10-17T06:09:22;7.78;;;2.70;;
37047;SDS011;23227;48.780;9.210;2022-10-17T06:12:25;7.63;;;3.03;;
37047;SDS011;23227;48.780;9.210;2022-10-17T06:15:28;9.38;;;2.03;;
37047;SDS011;23227;48.780;9.210;2022-10-17T06:18:31;9.30;;;2.60;;
37047;SDS011;23227;48.780;9.210;2022-10-17T06:21:34;3.80;;;2.25;;
37047;SDS011;23227;48.780;9.210;2022-10-17T06:24:40;7.97;;;2.50;;
37047;SDS011;23227;48.780;9.210;2022-10-17T06:27:43;5.63;;;2.33;;
37047;SDS011;23227;48.780;9.210;2022-10-17T06:30:46;10.75;;;3.90;;
37047;SDS011;23227;48.780;9.210;2022-10-17T06:33:49;10.23;;;3.05;;
37047;SDS011;23227;48.780;9.210;2022-10-17T06:36:51;4.28;;;2.28;;
37047;SDS011;23227;48.780;9.210;2022-10-17T06:39:56;3.53;;;2.30;;
37047;SDS011;23227;48.780;9.210;2022-10-17T06:42:59;23.13;;;4.40;;
37047;SDS011;23227;48.780;9.210;2022-10-17T06:46:01;8.52;;;2.67;;
37047;SDS011;23227;48.780;9.210;2022-10-17T06:49:05;16.10;;;3.90;;
37047;SDS011;23227;48.780;9.210;2022-10-17T06:52:08;16.27;;;3.42;;
37047;SDS011;23227;48.780;9.210;2022-10-17T06:58:22;6.83;;;3.00;;
37047;SDS011;23227;48.780;9.210;2022-10-17T07:01:25;14.63;;;2.95;;
37047;SDS011;23227;48.780;9.210;2022-10-17T07:04:28;7.77;;;2.67;;
37047;SDS011;23227;48.780;9.210;2022-10-17T07:07:31;14.93;;;3.28;;
37047;SDS011;23227;48.780;9.210;2022-10-17T07:10:35;18.52;;;3.45;;
37047;SDS011;23227;48.780;9.210;2022-10-17T07:13:38;8.00;;;3.20;;
37047;SDS011;23227;48.780;9.210;2022-10-17T07:16:41;16.50;;;3.83;;
37047;SDS011;23227;48.780;9.210;2022-10-17T07:19:44;7.40;;;2.90;;
37047;SDS011;23227;48.780;9.210;2022-10-17T07:22:47;7.68;;;3.25;;
37047;SDS011;23227;48.780;9.210;2022-10-17T07:25:51;8.00;;;3.35;;
37047;SDS011;23227;48.780;9.210;2022-10-17T07:28:54;8.63;;;3.43;;
37047;SDS011;23227;48.780;9.210;2022-10-17T07:31:57;15.60;;;4.90;;
37047;SDS011;23227;48.780;9.210;2022-10-17T07:35:00;6.60;;;2.70;;
37047;SDS011;23227;48.780;9.210;2022-10-17T07:38:03;9.07;;;3.13;;
37047;SDS011;23227;48.780;9.210;2022-10-17T07:41:07;6.22;;;3.00;;
37047;SDS011;23227;48.780;9.210;2022-10-17T07:44:10;9.13;;;2.87;;
37047;SDS011;23227;48.780;9.210;2022-10-17T07:47:15;10.13;;;2.90;;
37047;SDS011;23227;48.780;9.210;2022-10-17T07:50:18;4.38;;;2.22;;
37047;SDS011;23227;48.780;9.210;2022-10-17T07:53:21;10.45;;;3.38;;
37047;SDS011;23227;48.780;9.210;2022-10-17T07:56:25;8.35;;;2.85;;
37047;SDS011;23227;48.780;9.210;2022-10-17T07:59:29;3.97;;;2.50;;
37047;SDS011;23227;48.780;9.210;2022-10-17T08:02:34;7.90;;;2.47;;
37047;SDS011;23227;48.780;9.210;2022-10-17T08:05:37;9.35;;;2.53;;
37047;SDS011;23227;48.780;9.210;2022-10-17T08:08:40;5.60;;;2.47;;
37047;SDS011;23227;48.780;9.210;2022-10-17T08:11:44;9.68;;;2.28;;
37047;SDS011;23227;48.780;9.210;2022-10-17T08:14:47;12.37;;;4.03;;
37047;SDS011;23227;48.780;9.210;2022-10-17T08:17:50;6.50;;;2.60;;
37047;SDS011;23227;48.780;9.210;2022-10-17T08:20:57;8.50;;;2.27;;
37047;SDS011;23227;48.780;9.210;2022-10-17T08:24:00;9.90;;;2.60;;
37047;SDS011;23227;48.780;9.210;2022-10-17T08:30:11;7.60;;;3.00;;
37047;SDS011;23227;48.780;9.210;2022-10-17T08:33:14;8.82;;;2.65;;
37047;SDS011;23227;48.780;9.210;2022-10-17T08:36:17;12.93;;;3.00;;
37047;SDS011;23227;48.780;9.210;2022-10-17T08:39:21;9.87;;;2.90;;
37047;SDS011;23227;48.780;9.210;2022-10-17T08:42:29;7.38;;;2.30;;
37047;SDS011;23227;48.780;9.210;2022-10-17T08:45:43;10.20;;;2.20;;
37047;SDS011;23227;48.780;9.210;2022-10-17T08:48:48;5.23;;;2.20;;
37047;SDS011;23227;48.780;9.210;2022-10-17T08:51:53;8.27;;;2.20;;
37047;SDS011;23227;48.780;9.210;2022-10-17T08:55:10;7.85;;;2.45;;
37047;SDS011;23227;48.780;9.210;2022-10-17T08:58:18;5.73;;;2.50;;
37047;SDS011;23227;48.780;9.210;2022-10-17T09:01:28;9.03;;;3.00;;
37047;SDS011;23227;48.780;9.210;2022-10-17T09:04:44;12.83;;;2.87;;
37047;SDS011;23227;48.780;9.210;2022-10-17T09:08:01;8.48;;;2.17;;
37047;SDS011;23227;48.780;9.210;2022-10-17T09:11:11;4.80;;;2.83;;
37047;SDS011;23227;48.780;9.210;2022-10-17T09:14:27;10.27;;;2.60;;
37047;SDS011;23227;48.780;9.210;2022-10-17T09:17:42;5.97;;;2.30;;
37047;SDS011;23227;48.780;9.210;2022-10-17T09:20:50;10.90;;;3.20;;
37047;SDS011;23227;48.780;9.210;2022-10-17T09:23:54;10.33;;;2.63;;
37047;SDS011;23227;48.780;9.210;2022-10-17T09:27:13;5.10;;;1.93;;
37047;SDS011;23227;48.780;9.210;2022-10-17T09:30:24;3.00;;;1.60;;
37047;SDS011;23227;48.780;9.210;2022-10-17T09:33:48;5.67;;;2.17;;
37047;SDS011;23227;48.780;9.210;2022-10-17T09:36:56;8.63;;;1.93;;
37047;SDS011;23227;48.780;9.210;2022-10-17T09:39:59;9.77;;;2.00;;
37047;SDS011;23227;48.780;9.210;2022-10-17T09:43:04;11.13;;;2.80;;
37047;SDS011;23227;48.780;9.210;2022-10-17T09:46:12;7.80;;;2.60;;
37047;SDS011;23227;48.780;9.210;2022-10-17T09:49:19;11.33;;;2.13;;
37047;SDS011;23227;48.780;9.210;2022-10-17T09:52:25;7.73;;;2.63;;
37047;SDS011;23227;48.780;9.210;2022-10-17T09:55:32;7.57;;;2.20;;
37047;SDS011;23227;48.780;9.210;2022-10-17T09:58:40;4.50;;;1.70;;
37047;SDS011;23227;48.780;9.210;2022-10-17T10:01:45;12.80;;;2.40;;
37047;SDS011;23227;48.780;9.210;2022-10-17T10:04:52;8.10;;;2.40;;
37047;SDS011;23227;48.780;9.210;2022-10-17T10:08:11;6.63;;;2.00;;
37047;SDS011;23227;48.780;9.210;2022-10-17T10:11:15;6.40;;;2.10;;
37047;SDS011;23227;48.780;9.210;2022-10-17T10:14:20;14.67;;;3.00;;
37047;SDS011;23227;48.780;9.210;2022-10-17T10:17:32;5.67;;;2.07;;
37047;SDS011;23227;48.780;9.210;2022-10-17T10:20:37;8.65;;;2.00;;
37047;SDS011;23227;48.780;9.210;2022-10-17T10:23:41;8.90;;;1.97;;
37047;SDS011;23227;48.780;9.210;2022-10-17T10:26:45;6.80;;;2.33;;
37047;SDS011;23227;48.780;9.210;2022-10-17T10:29:49;5.63;;;2.17;;
37047;SDS011;23227;48.780;9.210;2022-10-17T10:32:55;3.53;;;2.20;;
37047;SDS011;23227;48.780;9.210;2022-10-17T10:35:59;7.27;;;1.90;;
37047;SDS011;23227;48.780;9.210;2022-10-17T10:39:03;9.10;;;2.20;;
37047;SDS011;23227;48.780;9.210;2022-10-17T10:42:07;12.75;;;2.28;;
37047;SDS011;23227;48.780;9.210;2022-10-17T10:45:21;7.80;;;1.93;;
37047;SDS011;23227;48.780;9.210;2022-10-17T10:48:51;4.10;;;1.43;;
37047;SDS011;23227;48.780;9.210;2022-10-17T10:51:56;5.13;;;1.80;;
37047;SDS011;23227;48.780;9.210;2022-10-17T10:55:03;4.43;;;1.37;;
37047;SDS011;23227;48.780;9.210;2022-10-17T10:58:15;3.73;;;1.13;;
37047;SDS011;23227;48.780;9.210;2022-10-17T11:01:26;11.77;;;1.40;;
37047;SDS011;23227;48.780;9.210;2022-10-17T11:04:33;4.17;;;1.33;;
37047;SDS011;23227;48.780;9.210;2022-10-17T11:07:40;2.75;;;1.13;;
37047;SDS011;23227;48.780;9.210;2022-10-17T11:10:48;6.90;;;1.90;;
37047;SDS011;23227;48.780;9.210;2022-10-17T11:13:59;3.03;;;1.30;;
37047;SDS011;23227;48.780;9.210;2022-10-17T11:17:07;1.98;;;1.35;;
37047;SDS011;23227;48.780;9.210;2022-10-17T11:20:18;8.20;;;1.40;;
37047;SDS011;23227;48.780;9.210;2022-10-17T11:23:24;4.85;;;1.10;;
37047;SDS011;23227;48.780;9.210;2022-10-17T11:26:31;3.45;;;0.90;;
37047;SDS011;23227;48.780;9.210;2022-10-17T11:29:37;4.07;;;1.50;;
37047;SDS011;23227;48.780;9.210;2022-10-17T11:32:41;9.55;;;1.17;;
37047;SDS011;23227;48.780;9.210;2022-10-17T11:35:48;8.20;;;1.48;;
37047;SDS011;23227;48.780;9.210;2022-10-17T11:38:54;1.25;;;0.90;;
37047;SDS011;23227;48.780;9.210;2022-10-17T11:42:01;10.88;;;1.00;;
37047;SDS011;23227;48.780;9.210;2022-10-17T11:45:08;6.88;;;1.13;;
37047;SDS011;23227;48.780;9.210;2022-10-17T11:48:14;4.72;;;0.73;;
37047;SDS011;23227;48.780;9.210;2022-10-17T11:51:21;4.32;;;1.38;;
37047;SDS011;23227;48.780;9.210;2022-10-17T11:54:47;7.18;;;1.10;;
37047;SDS011;23227;48.780;9.210;2022-10-17T11:58:00;6.78;;;1.10;;
37047;SDS011;23227;48.780;9.210;2022-10-17T12:01:20;5.40;;;1.05;;
37047;SDS011;23227;48.780;9.210;2022-10-17T12:04:29;1.90;;;0.88;;
37047;SDS011;23227;48.780;9.210;2022-10-17T12:07:52;2.30;;;0.82;;
37047;SDS011;23227;48.780;9.210;2022-10-17T12:10:58;7.60;;;1.30;;
37047;SDS011;23227;48.780;9.210;2022-10-17T12:14:08;2.90;;;1.25;;
37047;SDS011;23227;48.780;9.210;2022-10-17T12:17:45;1.75;;;0.82;;
37047;SDS011;23227;48.780;9.210;2022-10-17T12:20:54;2.80;;;1.20;;
37047;SDS011;23227;48.780;9.210;2022-10-17T12:23:58;1.27;;;0.82;;
37047;SDS011;23227;48.780;9.210;2022-10-17T12:30:24;3.33;;;1.40;;
37047;SDS011;23227;48.780;9.210;2022-10-17T12:33:29;2.45;;;0.98;;
37047;SDS011;23227;48.780;9.210;2022-10-17T12:36:37;4.63;;;1.30;;
37047;SDS011;23227;48.780;9.210;2022-10-17T12:39:42;3.08;;;0.85;;
37047;SDS011;23227;48.780;9.210;2022-10-17T12:42:46;7.50;;;1.10;;
37047;SDS011;23227;48.780;9.210;2022-10-17T12:45:51;5.95;;;1.20;;
37047;SDS011;23227;48.780;9.210;2022-10-17T12:52:20;4.07;;;0.80;;
37047;SDS011;23227;48.780;9.210;2022-10-17T12:55:28;4.80;;;1.50;;
37047;SDS011;23227;48.780;9.210;2022-10-17T12:58:31;2.63;;;1.00;;
37047;SDS011;23227;48.780;9.210;2022-10-17T13:01:36;3.92;;;0.95;;
37047;SDS011;23227;48.780;9.210;2022-10-17T13:04:40;2.50;;;0.85;;
37047;SDS011;23227;48.780;9.210;2022-10-17T13:07:45;9.13;;;0.88;;
37047;SDS011;23227;48.780;9.210;2022-10-17T13:10:51;2.40;;;1.02;;
37047;SDS011;23227;48.780;9.210;2022-10-17T13:13:56;1.30;;;0.60;;
37047;SDS011;23227;48.780;9.210;2022-10-17T13:17:02;3.83;;;1.08;;
37047;SDS011;23227;48.780;9.210;2022-10-17T13:20:16;9.35;;;1.30;;
37047;SDS011;23227;48.780;9.210;2022-10-17T13:23:30;3.58;;;1.08;;
37047;SDS011;23227;48.780;9.210;2022-10-17T13:26:35;4.53;;;1.27;;
37047;SDS011;23227;48.780;9.210;2022-10-17T13:29:38;6.13;;;1.75;;
37047;SDS011;23227;48.780;9.210;2022-10-17T13:32:45;12.15;;;1.30;;
37047;SDS011;23227;48.780;9.210;2022-10-17T13:35:48;5.63;;;1.10;;
37047;SDS011;23227;48.780;9.210;2022-10-17T13:39:07;7.80;;;1.15;;
37047;SDS011;23227;48.780;9.210;2022-10-17T13:42:20;4.95;;;1.48;;
37047;SDS011;23227;48.780;9.210;2022-10-17T13:45:26;5.10;;;1.10;;
37047;SDS011;23227;48.780;9.210;2022-10-17T13:48:31;3.85;;;1.10;;
37047;SDS011;23227;48.780;9.210;2022-10-17T13:51:36;8.32;;;1.35;;
37047;SDS011;23227;48.780;9.210;2022-10-17T13:54:45;18.23;;;1.65;;
37047;SDS011;23227;48.780;9.210;2022-10-17T13:57:50;4.20;;;1.00;;
37047;SDS011;23227;48.780;9.210;2022-10-17T14:00:53;3.33;;;1.17;;
37047;SDS011;23227;48.780;9.210;2022-10-17T14:03:57;4.70;;;0.90;;
37047;SDS011;23227;48.780;9.210;2022-10-17T14:07:18;5.95;;;1.15;;
37047;SDS011;23227;48.780;9.210;2022-10-17T14:10:26;4.03;;;1.20;;
37047;SDS011;23227;48.780;9.210;2022-10-17T14:13:34;8.02;;;1.30;;
37047;SDS011;23227;48.780;9.210;2022-10-17T14:16:37;4.38;;;1.10;;
37047;SDS011;23227;48.780;9.210;2022-10-17T14:19:41;11.55;;;1.40;;
37047;SDS011;23227;48.780;9.210;2022-10-17T14:22:51;3.15;;;1.45;;
37047;SDS011;23227;48.780;9.210;2022-10-17T14:26:15;2.33;;;1.10;;
37047;SDS011;23227;48.780;9.210;2022-10-17T14:29:22;5.75;;;1.00;;
37047;SDS011;23227;48.780;9.210;2022-10-17T14:32:26;8.18;;;1.40;;
37047;SDS011;23227;48.780;9.210;2022-10-17T14:35:29;4.18;;;1.30;;
37047;SDS011;23227;48.780;9.210;2022-10-17T14:38:43;3.88;;;1.42;;
37047;SDS011;23227;48.780;9.210;2022-10-17T14:41:46;3.58;;;1.50;;
37047;SDS011;23227;48.780;9.210;2022-10-17T14:44:51;4.88;;;1.13;;
37047;SDS011;23227;48.780;9.210;2022-10-17T14:47:56;3.20;;;1.10;;
37047;SDS011;23227;48.780;9.210;2022-10-17T14:51:04;6.07;;;1.40;;
37047;SDS011;23227;48.780;9.210;2022-10-17T14:54:16;8.05;;;1.17;;
37047;SDS011;23227;48.780;9.210;2022-10-17T14:57:22;2.28;;;1.08;;
37047;SDS011;23227;48.780;9.210;2022-10-17T15:00:28;2.75;;;0.80;;
37047;SDS011;23227;48.780;9.210;2022-10-17T15:03:31;3.58;;;1.10;;
37047;SDS011;23227;48.780;9.210;2022-10-17T15:06:35;2.38;;;1.08;;
37047;SDS011;23227;48.780;9.210;2022-10-17T15:09:38;4.82;;;1.60;;
37047;SDS011;23227;48.780;9.210;2022-10-17T15:12:41;4.75;;;1.45;;
37047;SDS011;23227;48.780;9.210;2022-10-17T15:16:00;6.65;;;1.70;;
37047;SDS011;23227;48.780;9.210;2022-10-17T15:19:03;5.57;;;1.10;;
37047;SDS011;23227;48.780;9.210;2022-10-17T15:22:06;9.13;;;1.50;;
37047;SDS011;23227;48.780;9.210;2022-10-17T15:25:08;3.58;;;1.38;;
37047;SDS011;23227;48.780;9.210;2022-10-17T15:28:12;2.92;;;1.50;;
37047;SDS011;23227;48.780;9.210;2022-10-17T15:31:17;7.45;;;2.80;;
37047;SDS011;23227;48.780;9.210;2022-10-17T15:34:21;13.13;;;2.30;;
37047;SDS011;23227;48.780;9.210;2022-10-17T15:37:24;7.63;;;2.08;;
37047;SDS011;23227;48.780;9.210;2022-10-17T15:40:29;8.07;;;2.78;;
37047;SDS011;23227;48.780;9.210;2022-10-17T15:43:32;7.75;;;2.55;;
37047;SDS011;23227;48.780;9.210;2022-10-17T15:46:35;9.15;;;3.47;;
37047;SDS011;23227;48.780;9.210;2022-10-17T15:49:41;7.78;;;3.88;;
37047;SDS011;23227;48.780;9.210;2022-10-17T15:52:43;8.57;;;2.20;;
37047;SDS011;23227;48.780;9.210;2022-10-17T15:55:47;11.88;;;1.48;;
37047;SDS011;23227;48.780;9.210;2022-10-17T15:58:51;12.55;;;2.03;;
37047;SDS011;23227;48.780;9.210;2022-10-17T16:04:57;12.70;;;2.05;;
37047;SDS011;23227;48.780;9.210;2022-10-17T16:11:03;8.53;;;2.80;;
37047;SDS011;23227;48.780;9.210;2022-10-17T16:14:07;6.55;;;2.72;;
37047;SDS011;23227;48.780;9.210;2022-10-17T16:17:14;14.83;;;2.47;;
37047;SDS011;23227;48.780;9.210;2022-10-17T16:20:18;11.60;;;2.60;;
37047;SDS011;23227;48.780;9.210;2022-10-17T16:26:23;9.80;;;2.80;;
37047;SDS011;23227;48.780;9.210;2022-10-17T16:29:26;11.75;;;2.47;;
37047;SDS011;23227;48.780;9.210;2022-10-17T16:32:30;9.65;;;2.45;;
37047;SDS011;23227;48.780;9.210;2022-10-17T16:35:33;6.37;;;2.43;;
37047;SDS011;23227;48.780;9.210;2022-10-17T16:38:38;8.50;;;3.13;;
37047;SDS011;23227;48.780;9.210;2022-10-17T16:41:40;5.60;;;2.20;;
37047;SDS011;23227;48.780;9.210;2022-10-17T16:44:43;7.90;;;2.78;;
37047;SDS011;23227;48.780;9.210;2022-10-17T16:47:47;11.27;;;2.30;;
37047;SDS011;23227;48.780;9.210;2022-10-17T16:50:55;12.27;;;2.77;;
37047;SDS011;23227;48.780;9.210;2022-10-17T16:53:58;6.60;;;2.08;;
37047;SDS011;23227;48.780;9.210;2022-10-17T16:57:01;10.07;;;2.50;;
37047;SDS011;23227;48.780;9.210;2022-10-17T17:00:04;11.20;;;2.80;;
37047;SDS011;23227;48.780;9.210;2022-10-17T17:03:10;12.03;;;3.53;;
37047;SDS011;23227;48.780;9.210;2022-10-17T17:06:14;6.10;;;2.57;;
37047;SDS011;23227;48.780;9.210;2022-10-17T17:09:19;11.50;;;2.40;;
37047;SDS011;23227;48.780;9.210;2022-10-17T17:12:22;16.33;;;2.67;;
37047;SDS011;23227;48.780;9.210;2022-10-17T17:18:29;10.87;;;2.90;;
37047;SDS011;23227;48.780;9.210;2022-10-17T17:21:33;8.70;;;3.43;;
37047;SDS011;23227;48.780;9.210;2022-10-17T17:24:36;16.33;;;3.00;;
37047;SDS011;23227;48.780;9.210;2022-10-17T17:27:39;12.40;;;3.22;;
37047;SDS011;23227;48.780;9.210;2022-10-17T17:30:41;13.15;;;3.63;;
37047;SDS011;23227;48.780;9.210;2022-10-17T17:33:46;11.82;;;3.22;;
37047;SDS011;23227;48.780;9.210;2022-10-17T17:36:49;10.37;;;2.63;;
37047;SDS011;23227;48.780;9.210;2022-10-17T17:39:52;7.15;;;3.22;;
37047;SDS011;23227;48.780;9.210;2022-10-17T17:42:54;13.13;;;3.45;;
37047;SDS011;23227;48.780;9.210;2022-10-17T17:45:59;10.57;;;3.35;;
37047;SDS011;23227;48.780;9.210;2022-10-17T17:49:05;8.70;;;3.10;;
37047;SDS011;23227;48.780;9.210;2022-10-17T17:52:08;8.23;;;3.33;;
37047;SDS011;23227;48.780;9.210;2022-10-17T17:55:10;12.40;;;3.40;;
37047;SDS011;23227;48.780;9.210;2022-10-17T17:58:13;13.77;;;3.42;;
37047;SDS011;23227;48.780;9.210;2022-10-17T18:01:17;11.98;;;2.65;;
37047;SDS011;23227;48.780;9.210;2022-10-17T18:04:24;13.53;;;3.17;;
37047;SDS011;23227;48.780;9.210;2022-10-17T18:07:28;9.27;;;4.40;;
37047;SDS011;23227;48.780;9.210;2022-10-17T18:10:31;9.15;;;3.30;;
37047;SDS011;23227;48.780;9.210;2022-10-17T18:13:34;10.52;;;3.38;;
37047;SDS011;23227;48.780;9.210;2022-10-17T18:16:37;16.83;;;5.28;;
37047;SDS011;23227;48.780;9.210;2022-10-17T18:19:42;16.53;;;9.00;;
37047;SDS011;23227;48.780;9.210;2022-10-17T18:22:45;16.03;;;4.73;;
37047;SDS011;23227;48.780;9.210;2022-10-17T18:25:54;13.10;;;4.63;;
37047;SDS011;23227;48.780;9.210;2022-10-17T18:28:57;16.13;;;5.90;;
37047;SDS011;23227;48.780;9.210;2022-10-17T18:32:00;12.68;;;4.80;;
37047;SDS011;23227;48.780;9.210;2022-10-17T18:35:05;14.48;;;4.28;;
37047;SDS011;23227;48.780;9.210;2022-10-17T18:38:08;11.63;;;4.30;;
37047;SDS011;23227;48.780;9.210;2022-10-17T18:41:11;14.98;;;4.35;;
37047;SDS011;23227;48.780;9.210;2022-10-17T18:44:15;10.37;;;4.80;;
37047;SDS011;23227;48.780;9.210;2022-10-17T18:47:18;7.90;;;4.55;;
37047;SDS011;23227;48.780;9.210;2022-10-17T18:50:22;14.25;;;4.03;;
37047;SDS011;23227;48.780;9.210;2022-10-17T18:53:26;21.70;;;4.87;;
37047;SDS011;23227;48.780;9.210;2022-10-17T18:56:29;9.77;;;4.00;;
37047;SDS011;23227;48.780;9.210;2022-10-17T19:02:35;10.07;;;4.33;;
37047;SDS011;23227;48.780;9.210;2022-10-17T19:05:39;8.75;;;4.07;;
37047;SDS011;23227;48.780;9.210;2022-10-17T19:08:45;15.47;;;4.47;;
37047;SDS011;23227;48.780;9.210;2022-10-17T19:11:48;11.47;;;4.33;;